createdAt,value
2023-01-03T00:01:15.857Z,2.30
2023-01-03T00:04:02.241Z,2.30
2023-01-03T00:06:50.099Z,2.29
2023-01-03T00:09:35.265Z,2.31
2023-01-03T00:12:30.785Z,2.32
2023-01-03T00:15:16.820Z,2.25
2023-01-03T00:18:02.243Z,2.29
2023-01-03T00:20:47.449Z,2.13
2023-01-03T00:23:32.664Z,2.25
2023-01-03T00:26:17.849Z,2.26
2023-01-03T00:29:03.516Z,2.23
2023-01-03T00:31:48.945Z,2.20
2023-01-03T00:34:35.322Z,2.20
2023-01-03T00:37:20.495Z,2.24
2023-01-03T00:40:05.827Z,2.20
2023-01-03T00:43:09.313Z,2.11
2023-01-03T00:45:54.699Z,2.16
2023-01-03T00:48:40.525Z,2.23
2023-01-03T00:51:28.460Z,2.19
2023-01-03T00:54:14.774Z,2.26
2023-01-03T00:57:00.040Z,2.34
2023-01-03T00:59:45.344Z,2.43
2023-01-03T01:02:30.862Z,2.43
2023-01-03T01:05:16.479Z,2.32
2023-01-03T01:08:01.323Z,2.38
2023-01-03T01:11:01.817Z,2.48
2023-01-03T01:13:47.916Z,2.36
2023-01-03T01:16:33.261Z,2.47
2023-01-03T01:19:21.619Z,2.48
2023-01-03T01:22:07.232Z,2.50
2023-01-03T01:24:52.418Z,2.42
2023-01-03T01:27:37.446Z,2.40
2023-01-03T01:30:22.450Z,2.38
2023-01-03T01:33:07.420Z,2.37
2023-01-03T01:35:52.474Z,2.37
2023-01-03T01:38:37.353Z,2.34
2023-01-03T01:41:41.280Z,2.44
2023-01-03T01:44:48.163Z,2.53
2023-01-03T01:47:35.984Z,2.56
2023-01-03T01:50:32.981Z,2.61
2023-01-03T01:53:34.542Z,2.57
2023-01-03T01:56:23.666Z,2.50
2023-01-03T01:59:11.226Z,2.63
2023-01-03T02:01:56.273Z,2.65
2023-01-03T02:04:41.498Z,2.73
2023-01-03T02:07:26.522Z,2.72
2023-01-03T02:10:11.733Z,2.76
2023-01-03T02:13:07.766Z,2.75
2023-01-03T02:16:19.303Z,2.72
2023-01-03T02:19:44.568Z,2.75
2023-01-03T02:23:16.969Z,2.71
2023-01-03T02:26:04.989Z,2.63
2023-01-03T02:29:26.344Z,2.74
2023-01-03T02:32:11.342Z,2.76
2023-01-03T02:35:28.960Z,2.71
2023-01-03T02:38:38.142Z,2.74
2023-01-03T02:41:29.751Z,2.83
2023-01-03T02:44:21.819Z,2.84
2023-01-03T02:47:11.999Z,2.82
2023-01-03T02:50:01.593Z,2.79
2023-01-03T02:52:50.073Z,2.78
2023-01-03T02:55:38.025Z,2.63
2023-01-03T02:58:28.350Z,2.81
2023-01-03T03:01:16.914Z,2.81
2023-01-03T03:04:03.510Z,2.85
2023-01-03T03:07:04.378Z,2.88
2023-01-03T03:10:08.366Z,2.89
2023-01-03T03:13:13.229Z,2.97
2023-01-03T03:16:06.696Z,3.06
2023-01-03T03:19:03.123Z,3.05
2023-01-03T03:22:06.998Z,3.09
2023-01-03T03:24:54.511Z,3.15
2023-01-03T03:28:01.792Z,3.16
2023-01-03T03:30:51.035Z,3.18
2023-01-03T03:33:42.295Z,3.16
2023-01-03T03:36:54.027Z,3.16
2023-01-03T03:39:57.614Z,3.14
2023-01-03T03:43:11.265Z,3.16
2023-01-03T03:46:06.828Z,3.15
2023-01-03T03:49:21.181Z,2.99
2023-01-03T03:52:11.769Z,3.05
2023-01-03T03:55:06.728Z,3.05
2023-01-03T03:57:58.735Z,3.05
2023-01-03T04:00:46.321Z,3.01
2023-01-03T04:03:32.840Z,2.93
2023-01-03T04:06:28.176Z,3.05
2023-01-03T04:09:14.039Z,2.92
2023-01-03T04:11:59.167Z,3.04
2023-01-03T04:14:44.376Z,2.94
2023-01-03T04:17:29.813Z,3.03
2023-01-03T04:20:15.296Z,3.05
2023-01-03T04:23:00.697Z,3.12
2023-01-03T04:25:45.784Z,3.19
2023-01-03T04:28:30.980Z,3.19
2023-01-03T04:31:16.090Z,3.25
2023-01-03T04:34:01.125Z,3.25
2023-01-03T04:36:46.295Z,3.32
2023-01-03T04:39:33.604Z,3.34
2023-01-03T04:42:37.554Z,3.11
2023-01-03T04:45:22.833Z,3.31
2023-01-03T04:48:08.069Z,3.27
2023-01-03T04:50:59.513Z,3.30
2023-01-03T04:53:44.725Z,3.24
2023-01-03T04:56:32.149Z,3.35
2023-01-03T04:59:17.178Z,3.39
2023-01-03T05:02:02.367Z,3.25
2023-01-03T05:04:47.459Z,3.27
2023-01-03T05:07:32.900Z,3.37
2023-01-03T05:10:17.972Z,3.30
2023-01-03T05:13:03.259Z,3.41
2023-01-03T05:15:48.708Z,3.38
2023-01-03T05:18:34.508Z,3.30
2023-01-03T05:21:40.452Z,3.14
2023-01-03T05:24:44.130Z,3.11
2023-01-03T05:27:29.447Z,3.17
2023-01-03T05:30:14.732Z,3.22
2023-01-03T05:32:59.887Z,3.15
2023-01-03T05:35:47.370Z,2.99
2023-01-03T05:38:32.589Z,3.07
2023-01-03T05:41:40.537Z,2.97
2023-01-03T05:44:30.499Z,2.94
2023-01-03T05:47:15.594Z,2.92
2023-01-03T05:50:00.685Z,2.92
2023-01-03T05:52:45.720Z,3.08
2023-01-03T05:55:30.733Z,3.05
2023-01-03T05:58:15.661Z,3.08
2023-01-03T06:01:08.348Z,2.98
2023-01-03T06:03:53.643Z,3.11
2023-01-03T06:06:38.682Z,3.16
2023-01-03T06:09:23.966Z,2.95
2023-01-03T06:12:09.109Z,3.09
2023-01-03T06:14:53.972Z,3.16
2023-01-03T06:17:57.879Z,3.09
2023-01-03T06:20:43.409Z,3.22
2023-01-03T06:23:28.490Z,3.27
2023-01-03T06:26:18.888Z,3.29
2023-01-03T06:29:05.421Z,3.27
2023-01-03T06:31:50.731Z,3.28
2023-01-03T06:34:35.964Z,3.19
2023-01-03T06:37:20.799Z,3.27
2023-01-03T06:40:07.052Z,3.29
2023-01-03T06:42:52.373Z,3.27
2023-01-03T06:45:56.072Z,3.25
2023-01-03T06:49:00.055Z,3.28
2023-01-03T06:52:07.073Z,3.26
2023-01-03T06:54:53.744Z,2.99
2023-01-03T06:57:38.570Z,3.13
2023-01-03T07:00:23.633Z,3.05
2023-01-03T07:03:11.415Z,3.17
2023-01-03T07:05:56.952Z,3.14
2023-01-03T07:08:47.928Z,3.04
2023-01-03T07:11:33.983Z,3.15
2023-01-03T07:14:19.061Z,3.18
2023-01-03T07:17:04.396Z,3.13
2023-01-03T07:19:49.332Z,3.08
2023-01-03T07:22:34.588Z,3.17
2023-01-03T07:25:20.571Z,3.23
2023-01-03T07:28:08.194Z,3.30
2023-01-03T07:31:04.596Z,3.42
2023-01-03T07:33:49.709Z,3.55
2023-01-03T07:36:35.079Z,4.07
2023-01-03T07:39:20.351Z,4.40
2023-01-03T07:42:24.248Z,4.64
2023-01-03T07:45:09.688Z,4.88
2023-01-03T07:47:54.608Z,4.99
2023-01-03T07:50:40.356Z,5.14
2023-01-03T07:53:25.661Z,5.25
2023-01-03T07:56:13.750Z,5.41
2023-01-03T07:58:59.680Z,5.58
2023-01-03T08:01:45.061Z,5.70
2023-01-03T08:04:30.442Z,5.92
2023-01-03T08:07:15.974Z,5.90
2023-01-03T08:10:20.180Z,5.94
2023-01-03T08:13:18.671Z,6.13
2023-01-03T08:16:04.565Z,6.26
2023-01-03T08:18:49.595Z,6.30
2023-01-03T08:21:35.089Z,6.35
2023-01-03T08:24:20.237Z,6.45
2023-01-03T08:27:06.267Z,6.41
2023-01-03T08:29:51.415Z,6.62
2023-01-03T08:32:37.599Z,6.68
2023-01-03T08:35:27.214Z,6.75
2023-01-03T08:38:19.365Z,6.82
2023-01-03T08:41:06.902Z,6.91
2023-01-03T08:43:53.135Z,6.95
2023-01-03T08:46:45.427Z,7.02
2023-01-03T08:49:31.559Z,7.02
2023-01-03T08:52:16.879Z,7.12
2023-01-03T08:55:02.688Z,7.21
2023-01-03T08:57:48.045Z,7.24
2023-01-03T09:00:32.906Z,7.26
2023-01-03T09:03:19.127Z,7.26
2023-01-03T09:06:04.980Z,7.24
2023-01-03T09:08:49.809Z,7.32
2023-01-03T09:11:35.457Z,7.46
2023-01-03T09:14:20.641Z,7.55
2023-01-03T09:17:05.920Z,7.58
2023-01-03T09:19:53.395Z,7.63
2023-01-03T09:22:38.660Z,7.67
2023-01-03T09:25:23.826Z,7.74
2023-01-03T09:28:08.837Z,7.68
2023-01-03T09:30:54.205Z,7.70
2023-01-03T09:33:39.265Z,7.84
2023-01-03T09:36:24.615Z,7.78
2023-01-03T09:39:09.946Z,7.88
2023-01-03T09:42:13.810Z,7.90
2023-01-03T09:45:00.437Z,8.05
2023-01-03T09:47:46.140Z,8.09
2023-01-03T09:51:14.602Z,8.04
2023-01-03T09:54:01.999Z,8.14
2023-01-03T09:57:05.895Z,8.14
2023-01-03T10:00:09.668Z,8.17
2023-01-03T10:03:50.473Z,8.20
2023-01-03T10:06:54.300Z,8.25
2023-01-03T10:10:00.972Z,8.33
2023-01-03T10:12:48.956Z,8.33
2023-01-03T10:15:50.436Z,8.39
2023-01-03T10:18:40.231Z,8.42
2023-01-03T10:21:43.093Z,8.34
2023-01-03T10:24:37.210Z,8.50
2023-01-03T10:27:25.995Z,8.53
2023-01-03T10:30:19.775Z,8.59
2023-01-03T10:33:39.443Z,8.72
2023-01-03T10:36:24.331Z,8.76
2023-01-03T10:39:11.276Z,8.84
2023-01-03T10:42:00.152Z,8.89
2023-01-03T10:45:04.130Z,8.95
2023-01-03T10:48:01.818Z,8.99
2023-01-03T10:50:47.105Z,9.07
2023-01-03T10:53:38.549Z,9.08
2023-01-03T10:56:25.568Z,9.08
2023-01-03T10:59:30.733Z,9.00
2023-01-03T11:02:18.458Z,9.03
2023-01-03T11:05:13.260Z,9.17
2023-01-03T11:08:01.966Z,9.20
2023-01-03T11:10:57.782Z,9.22
2023-01-03T11:13:43.277Z,9.24
2023-01-03T11:16:32.417Z,9.28
2023-01-03T11:19:18.688Z,9.29
2023-01-03T11:22:10.204Z,9.12
2023-01-03T11:25:28.408Z,9.26
2023-01-03T11:28:41.440Z,9.28
2023-01-03T11:31:47.867Z,9.28
2023-01-03T11:34:54.961Z,9.22
2023-01-03T11:37:50.655Z,9.21
2023-01-03T11:40:57.657Z,9.23
2023-01-03T11:44:07.452Z,9.31
2023-01-03T11:47:22.335Z,9.29
2023-01-03T11:50:10.425Z,9.30
2023-01-03T11:53:14.274Z,9.31
2023-01-03T11:56:53.028Z,9.23
2023-01-03T11:59:57.176Z,9.28
2023-01-03T12:02:52.622Z,9.19
2023-01-03T12:05:43.765Z,9.26
2023-01-03T12:08:45.115Z,9.24
2023-01-03T12:11:36.151Z,9.20
2023-01-03T12:14:38.977Z,9.25
2023-01-03T12:17:44.347Z,9.26
2023-01-03T12:20:37.153Z,9.26
2023-01-03T12:23:28.199Z,9.15
2023-01-03T12:26:15.604Z,9.13
2023-01-03T12:29:15.905Z,9.22
2023-01-03T12:32:08.700Z,9.18
2023-01-03T12:35:07.280Z,9.13
2023-01-03T12:37:52.689Z,9.21
2023-01-03T12:41:01.471Z,9.18
2023-01-03T12:43:53.959Z,9.18
2023-01-03T12:46:45.618Z,9.19
2023-01-03T12:50:03.114Z,9.17
2023-01-03T12:52:58.486Z,9.18
2023-01-03T12:55:59.764Z,9.16
2023-01-03T12:58:57.030Z,9.14
2023-01-03T13:01:59.241Z,9.13
2023-01-03T13:04:48.212Z,9.15
2023-01-03T13:07:34.250Z,9.16
2023-01-03T13:10:22.486Z,9.17
2023-01-03T13:13:13.481Z,9.16
2023-01-03T13:15:58.880Z,9.15
2023-01-03T13:18:43.997Z,9.15
2023-01-03T13:22:10.821Z,9.20
2023-01-03T13:25:27.939Z,9.21
2023-01-03T13:28:22.250Z,9.14
2023-01-03T13:31:13.330Z,9.22
2023-01-03T13:34:11.211Z,9.15
2023-01-03T13:37:12.311Z,9.17
2023-01-03T13:40:10.675Z,9.20
2023-01-03T13:43:08.208Z,9.35
2023-01-03T13:45:56.178Z,9.30
2023-01-03T13:48:53.316Z,9.21
2023-01-03T13:51:41.575Z,9.23
2023-01-03T13:54:58.009Z,9.33
2023-01-03T13:57:53.207Z,9.35
2023-01-03T14:00:40.467Z,9.35
2023-01-03T14:03:44.628Z,9.37
2023-01-03T14:06:58.376Z,9.38
2023-01-03T14:09:46.333Z,9.38
2023-01-03T14:12:56.200Z,9.38
2023-01-03T14:15:41.185Z,9.38
2023-01-03T14:18:30.091Z,9.42
2023-01-03T14:21:25.801Z,9.33
2023-01-03T14:24:25.220Z,9.42
2023-01-03T14:27:17.517Z,9.36
2023-01-03T14:30:03.839Z,9.44
2023-01-03T14:32:49.167Z,9.37
2023-01-03T14:35:39.036Z,9.44
2023-01-03T14:38:29.969Z,9.46
2023-01-03T14:41:34.418Z,9.45
2023-01-03T14:44:19.349Z,9.44
2023-01-03T14:47:12.073Z,9.46
2023-01-03T14:49:57.745Z,9.46
2023-01-03T14:52:45.876Z,9.46
2023-01-03T14:55:33.072Z,9.47
2023-01-03T14:58:40.741Z,9.46
2023-01-03T15:01:27.019Z,9.45
2023-01-03T15:04:16.703Z,9.47
2023-01-03T15:07:11.269Z,9.46
2023-01-03T15:10:06.867Z,9.44
2023-01-03T15:12:58.962Z,9.33
2023-01-03T15:15:55.135Z,9.36
2023-01-03T15:18:40.837Z,9.36
2023-01-03T15:21:25.919Z,9.24
2023-01-03T15:24:19.951Z,9.34
2023-01-03T15:27:37.230Z,9.44
2023-01-03T15:30:25.272Z,9.33
2023-01-03T15:33:33.268Z,9.44
2023-01-03T15:36:19.660Z,9.33
2023-01-03T15:39:10.185Z,9.45
2023-01-03T15:45:27.528Z,9.47
2023-01-03T15:48:19.389Z,9.49
2023-01-03T15:51:05.427Z,9.34
2023-01-03T15:53:50.649Z,9.50
2023-01-03T15:56:36.638Z,9.53
2023-01-03T15:59:26.324Z,9.55
2023-01-03T16:02:19.667Z,9.46
2023-01-03T16:05:07.587Z,9.52
2023-01-03T16:07:52.887Z,9.46
2023-01-03T16:10:38.224Z,9.47
2023-01-03T16:13:25.656Z,9.48
2023-01-03T16:16:11.590Z,9.54
2023-01-03T16:18:57.815Z,9.58
2023-01-03T16:21:51.630Z,9.57
2023-01-03T16:24:47.572Z,9.60
2023-01-03T16:27:32.885Z,9.60
2023-01-03T16:30:17.975Z,9.62
2023-01-03T16:33:03.463Z,9.65
2023-01-03T16:35:54.569Z,9.57
2023-01-03T16:38:39.800Z,9.64
2023-01-03T16:41:25.360Z,9.64
2023-01-03T16:44:10.584Z,9.67
2023-01-03T16:46:55.853Z,9.68
2023-01-03T16:49:42.767Z,9.69
2023-01-03T16:52:37.732Z,9.68
2023-01-03T16:55:27.745Z,9.70
2023-01-03T16:58:15.868Z,9.60
2023-01-03T17:01:00.935Z,9.71
2023-01-03T17:03:46.227Z,9.70
2023-01-03T17:06:37.921Z,9.71
2023-01-03T17:09:32.031Z,9.72
2023-01-03T17:12:22.199Z,9.75
2023-01-03T17:15:09.653Z,9.74
2023-01-03T17:17:54.784Z,9.74
2023-01-03T17:20:39.986Z,9.69
2023-01-03T17:23:26.683Z,9.80
2023-01-03T17:26:15.183Z,9.79
2023-01-03T17:29:06.151Z,9.77
2023-01-03T17:31:51.709Z,9.70
2023-01-03T17:34:36.943Z,9.74
2023-01-03T17:37:22.883Z,9.66
2023-01-03T17:40:20.709Z,9.76
2023-01-03T17:43:05.774Z,9.76
2023-01-03T17:46:16.131Z,9.76
2023-01-03T17:49:25.178Z,9.77
2023-01-03T17:52:23.704Z,9.77
2023-01-03T17:55:29.525Z,9.74
2023-01-03T17:58:19.945Z,9.75
2023-01-03T18:01:05.990Z,9.77
2023-01-03T18:03:51.473Z,9.77
2023-01-03T18:06:39.300Z,9.66
2023-01-03T18:09:27.207Z,9.76
2023-01-03T18:12:17.343Z,9.77
2023-01-03T18:15:02.301Z,9.76
2023-01-03T18:17:48.165Z,9.77
2023-01-03T18:20:33.664Z,9.76
2023-01-03T18:23:24.767Z,9.74
2023-01-03T18:26:13.469Z,9.67
2023-01-03T18:28:58.521Z,9.76
2023-01-03T18:31:45.790Z,9.71
2023-01-03T18:34:31.041Z,9.75
2023-01-03T18:37:16.116Z,9.80
2023-01-03T18:40:02.812Z,9.78
2023-01-03T18:43:06.982Z,9.81
2023-01-03T18:45:53.468Z,9.81
2023-01-03T18:48:43.491Z,9.81
2023-01-03T18:51:29.425Z,9.83
2023-01-03T18:54:18.633Z,9.85
2023-01-03T18:57:03.850Z,9.87
2023-01-03T18:59:50.345Z,9.86
2023-01-03T19:02:36.253Z,9.89
2023-01-03T19:05:21.704Z,9.89
2023-01-03T19:08:08.457Z,9.90
2023-01-03T19:10:53.535Z,9.90
2023-01-03T19:13:51.519Z,9.79
2023-01-03T19:16:37.871Z,9.89
2023-01-03T19:19:23.390Z,9.92
2023-01-03T19:22:27.883Z,9.86
2023-01-03T19:25:29.650Z,9.92
2023-01-03T19:28:22.025Z,9.90
2023-01-03T19:31:11.687Z,9.89
2023-01-03T19:33:56.614Z,9.73
2023-01-03T19:36:41.719Z,9.89
2023-01-03T19:39:30.901Z,9.83
2023-01-03T19:42:39.499Z,9.88
2023-01-03T19:45:33.863Z,9.98
2023-01-03T19:48:21.455Z,9.79
2023-01-03T19:51:06.991Z,9.86
2023-01-03T19:53:51.896Z,9.97
2023-01-03T19:56:36.969Z,9.93
2023-01-03T19:59:34.808Z,9.98
2023-01-03T20:02:32.388Z,10.06
2023-01-03T20:05:20.931Z,10.02
2023-01-03T20:08:12.052Z,10.06
2023-01-03T20:10:58.195Z,10.00
2023-01-03T20:13:43.860Z,10.07
2023-01-03T20:16:29.836Z,9.91
2023-01-03T20:19:17.814Z,10.11
2023-01-03T20:22:02.911Z,10.11
2023-01-03T20:24:48.352Z,10.12
2023-01-03T20:27:36.801Z,10.13
2023-01-03T20:30:30.085Z,10.18
2023-01-03T20:33:15.006Z,10.11
2023-01-03T20:36:12.546Z,10.14
2023-01-03T20:38:59.871Z,10.22
2023-01-03T20:41:45.232Z,10.27
2023-01-03T20:44:30.612Z,10.23
2023-01-03T20:47:20.528Z,10.32
2023-01-03T20:50:06.299Z,10.30
2023-01-03T20:52:51.406Z,10.35
2023-01-03T20:55:36.525Z,10.37
2023-01-03T20:58:25.596Z,10.41
2023-01-03T21:01:11.190Z,10.34
2023-01-03T21:03:57.231Z,10.36
2023-01-03T21:06:44.962Z,10.48
2023-01-03T21:09:30.056Z,10.48
2023-01-03T21:12:14.958Z,10.53
2023-01-03T21:14:59.924Z,10.54
2023-01-03T21:17:50.617Z,10.53
2023-01-03T21:20:36.345Z,10.58
2023-01-03T21:23:23.354Z,10.59
2023-01-03T21:26:08.185Z,10.63
2023-01-03T21:28:53.216Z,10.54
2023-01-03T21:31:40.284Z,10.69
2023-01-03T21:34:25.308Z,10.71
2023-01-03T21:37:10.619Z,10.73
2023-01-03T21:39:55.700Z,10.75
2023-01-03T21:43:03.580Z,10.65
2023-01-03T21:45:52.739Z,10.68
2023-01-03T21:48:38.060Z,10.76
2023-01-03T21:51:38.468Z,10.79
2023-01-03T21:54:24.299Z,10.83
2023-01-03T21:57:09.767Z,10.84
2023-01-03T21:59:54.675Z,10.83
2023-01-03T22:03:00.354Z,10.86
2023-01-03T22:05:45.679Z,10.80
2023-01-03T22:08:31.139Z,10.86
2023-01-03T22:11:16.240Z,10.91
2023-01-03T22:14:01.500Z,10.93
2023-01-03T22:16:46.689Z,10.95
2023-01-03T22:19:31.718Z,10.80
2023-01-03T22:22:16.887Z,10.96
2023-01-03T22:25:01.962Z,10.97
2023-01-03T22:27:47.365Z,10.98
2023-01-03T22:30:32.231Z,10.99
2023-01-03T22:33:17.620Z,11.01
2023-01-03T22:36:03.050Z,11.01
2023-01-03T22:38:48.302Z,10.94
2023-01-03T22:41:33.248Z,10.96
2023-01-03T22:44:18.402Z,10.96
2023-01-03T22:47:04.549Z,11.03
2023-01-03T22:49:49.881Z,11.04
2023-01-03T22:52:36.667Z,11.04
2023-01-03T22:55:24.353Z,11.04
2023-01-03T22:58:16.158Z,10.97
2023-01-03T23:01:10.444Z,11.02
2023-01-03T23:04:01.188Z,11.04
2023-01-03T23:06:46.777Z,11.06
2023-01-03T23:09:31.804Z,10.96
2023-01-03T23:12:35.701Z,10.96
2023-01-03T23:15:21.073Z,11.06
2023-01-03T23:18:06.227Z,11.08
2023-01-03T23:20:51.431Z,11.08
2023-01-03T23:23:36.934Z,11.06
2023-01-03T23:26:22.280Z,11.09
2023-01-03T23:29:09.141Z,11.10
2023-01-03T23:31:54.369Z,11.07
2023-01-03T23:34:39.289Z,11.15
2023-01-03T23:37:24.577Z,11.13
2023-01-03T23:40:10.467Z,11.16
2023-01-03T23:42:55.641Z,11.17
2023-01-03T23:45:40.677Z,11.17
2023-01-03T23:48:25.685Z,11.06
2023-01-03T23:51:11.468Z,11.15
2023-01-03T23:53:56.471Z,11.17
2023-01-03T23:56:41.691Z,11.18
2023-01-03T23:59:26.843Z,11.19
